Time;durP1;ratioP1;P1;durP2;ratioP2;P2;SDS_P1;SDS_P2;PMS_P1;PMS_P2;Temp;Humidity;BMP_temperature;BMP_pressure;BME280_temperature;BME280_humidity;BME280_pressure;Samples;Min_cycle;Max_cycle;Signal;HPM_P1;HPM_P2
2022/01/06 00:00:28;;;;;;;0.60;0.40;;;3.50;94.20;;;;;;5092351;28;20523;-81
2022/01/06 00:02:55;;;;;;;2.00;0.60;;;3.30;94.00;;;;;;5093246;28;20406;-81
2022/01/06 00:05:20;;;;;;;1.02;0.40;;;3.60;94.10;;;;;;5093273;28;20522;-81
2022/01/06 00:07:46;;;;;;;1.02;0.65;;;3.20;94.30;;;;;;5093544;28;20024;-78
2022/01/06 00:10:13;;;;;;;0.70;0.40;;;3.50;94.00;;;;;;5092379;28;20066;-79
2022/01/06 00:13:08;;;;;;;0.73;0.50;;;3.30;93.70;;;;;;5092080;28;20051;-79
2022/01/06 00:25:52;;;;;;;1.90;0.38;;;3.80;93.60;;;;;;5093106;28;20074;-82
2022/01/06 00:28:19;;;;;;;1.42;0.50;;;3.40;93.30;;;;;;5092050;28;20427;-80
2022/01/06 00:30:45;;;;;;;0.45;0.45;;;3.30;93.30;;;;;;5092085;28;20020;-79
2022/01/06 00:33:12;;;;;;;0.70;0.50;;;3.30;93.40;;;;;;5092116;28;20032;-79
2022/01/06 00:35:38;;;;;;;1.65;0.30;;;3.40;93.20;;;;;;5091465;28;20024;-82
2022/01/06 00:38:06;;;;;;;0.28;0.28;;;3.30;92.90;;;;;;5091896;28;20023;-80
2022/01/06 00:40:32;;;;;;;2.03;0.50;;;3.50;92.60;;;;;;5093185;28;20020;-80
2022/01/06 00:42:58;;;;;;;1.85;0.47;;;3.40;92.10;;;;;;5092326;28;20024;-79
2022/01/06 00:45:24;;;;;;;1.65;0.60;;;3.40;92.10;;;;;;5092376;28;20020;-77
2022/01/06 00:47:49;;;;;;;2.63;0.47;;;3.90;92.00;;;;;;5092447;28;20020;-79
2022/01/06 00:50:15;;;;;;;0.68;0.50;;;3.40;92.40;;;;;;5092319;28;20089;-80
2022/01/06 00:52:41;;;;;;;0.40;0.30;;;3.80;92.30;;;;;;5094247;28;20024;-80
2022/01/06 00:55:07;;;;;;;0.52;0.50;;;3.40;92.30;;;;;;5095506;28;20024;-80
2022/01/06 00:57:32;;;;;;;0.40;0.17;;;3.40;92.60;;;;;;5094921;28;20464;-84
2022/01/06 00:59:58;;;;;;;0.80;0.40;;;3.70;92.40;;;;;;5095025;28;20036;-77
2022/01/06 01:02:24;;;;;;;0.73;0.30;;;3.50;91.60;;;;;;5095134;28;20020;-81
2022/01/06 01:04:49;;;;;;;0.40;0.40;;;3.50;91.20;;;;;;5095376;28;20448;-81
2022/01/06 01:07:15;;;;;;;0.40;0.40;;;3.60;91.00;;;;;;5094787;28;20020;-78
2022/01/06 01:09:41;;;;;;;0.32;0.30;;;3.70;91.40;;;;;;5095180;28;20032;-79
2022/01/06 01:12:07;;;;;;;0.88;0.40;;;3.50;91.30;;;;;;5094925;28;20467;-78
2022/01/06 01:14:44;;;;;;;0.40;0.30;;;3.60;91.10;;;;;;5095176;28;20379;-81
2022/01/06 01:17:14;;;;;;;1.15;0.30;;;3.60;91.20;;;;;;5094441;28;20032;-77
2022/01/06 01:19:40;;;;;;;1.40;0.32;;;3.70;91.30;;;;;;5095292;28;20028;-79
2022/01/06 01:22:08;;;;;;;0.35;0.22;;;3.60;91.70;;;;;;5095748;28;20095;-80
2022/01/06 01:24:34;;;;;;;0.22;0.20;;;3.50;92.10;;;;;;5094749;28;20052;-79
2022/01/06 01:27:00;;;;;;;0.55;0.30;;;3.50;91.10;;;;;;5094152;28;20075;-78
2022/01/06 01:29:27;;;;;;;0.40;0.40;;;3.90;91.10;;;;;;5094262;28;20043;-80
2022/01/06 01:31:55;;;;;;;0.25;0.20;;;3.80;91.30;;;;;;5094600;28;20024;-82
2022/01/06 01:34:25;;;;;;;0.77;0.40;;;3.60;91.40;;;;;;5095811;28;20077;-78
2022/01/06 01:36:54;;;;;;;0.75;0.40;;;4.00;92.00;;;;;;5094301;28;20396;-80
2022/01/06 01:39:21;;;;;;;1.08;0.45;;;3.40;92.20;;;;;;5094921;28;20641;-82
2022/01/06 01:41:48;;;;;;;0.30;0.20;;;3.70;92.20;;;;;;5094401;28;20051;-80
2022/01/06 01:44:18;;;;;;;0.40;0.40;;;3.60;91.60;;;;;;5095909;28;20027;-81
2022/01/06 01:46:52;;;;;;;1.10;0.40;;;3.50;91.50;;;;;;5094636;28;20463;-78
2022/01/06 01:51:49;;;;;;;4.38;1.52;;;3.70;91.10;;;;;;5095203;28;20027;-78
2022/01/06 01:54:15;;;;;;;3.08;0.60;;;3.60;91.10;;;;;;5094321;28;20016;-79
2022/01/06 01:56:42;;;;;;;0.82;0.30;;;3.80;91.50;;;;;;5094960;28;20055;-78
2022/01/06 01:59:07;;;;;;;0.35;0.22;;;3.80;92.80;;;;;;5095535;28;20502;-80
2022/01/06 02:01:33;;;;;;;0.50;0.38;;;3.40;93.90;;;;;;5093649;28;20020;-82
2022/01/06 02:03:59;;;;;;;0.47;0.47;;;3.30;93.90;;;;;;5093363;28;20360;-79
2022/01/06 02:06:25;;;;;;;0.73;0.40;;;3.60;93.90;;;;;;5094976;28;20024;-80
2022/01/06 02:08:51;;;;;;;1.85;0.52;;;3.20;94.10;;;;;;5093688;28;20051;-78
2022/01/06 02:11:18;;;;;;;1.25;0.45;;;3.10;94.50;;;;;;5094133;28;20053;-78
2022/01/06 02:13:48;;;;;;;0.90;0.57;;;3.50;95.10;;;;;;5093554;28;20028;-79
2022/01/06 02:16:13;;;;;;;1.25;0.50;;;3.40;95.50;;;;;;5093969;28;20114;-80
2022/01/06 02:18:39;;;;;;;0.20;0.20;;;3.30;96.30;;;;;;5093831;28;20054;-78
2022/01/06 02:21:05;;;;;;;0.73;0.40;;;3.00;96.60;;;;;;5095123;28;20430;-80
2022/01/06 02:23:31;;;;;;;0.45;0.40;;;3.20;97.20;;;;;;5094939;28;20028;-80
2022/01/06 02:25:56;;;;;;;0.40;0.40;;;3.10;97.70;;;;;;5095040;28;20425;-78
2022/01/06 02:28:22;;;;;;;0.52;0.45;;;2.80;98.50;;;;;;5093529;28;20487;-81
2022/01/06 02:30:51;;;;;;;1.95;0.38;;;2.70;99.60;;;;;;5094126;28;20028;-81
2022/01/06 02:33:18;;;;;;;1.38;0.43;;;2.60;99.90;;;;;;5094011;28;20028;-80
2022/01/06 02:35:44;;;;;;;0.52;0.43;;;2.60;99.90;;;;;;5094688;28;20073;-79
2022/01/06 02:38:11;;;;;;;0.60;0.20;;;2.60;99.60;;;;;;5093400;28;20024;-79
2022/01/06 02:40:37;;;;;;;0.40;0.32;;;2.90;99.70;;;;;;5093221;28;20020;-79
2022/01/06 02:43:06;;;;;;;0.43;0.43;;;2.70;99.60;;;;;;5093183;28;20161;-82
2022/01/06 02:45:31;;;;;;;0.60;0.40;;;2.70;99.80;;;;;;5092766;28;20024;-79
2022/01/06 02:48:00;;;;;;;1.50;0.65;;;3.00;99.90;;;;;;5095117;28;20032;-78
2022/01/06 02:50:26;;;;;;;1.13;0.50;;;2.50;99.70;;;;;;5093015;28;20035;-78
2022/01/06 02:52:53;;;;;;;0.80;0.30;;;3.00;99.90;;;;;;5094470;28;20016;-78
2022/01/06 02:55:19;;;;;;;0.70;0.35;;;2.60;99.90;;;;;;5092519;28;20024;-79
2022/01/06 02:57:46;;;;;;;2.15;0.50;;;2.70;99.90;;;;;;5092843;28;20024;-79
2022/01/06 03:00:16;;;;;;;0.40;0.32;;;2.60;99.90;;;;;;5094013;28;20020;-79
2022/01/06 03:02:43;;;;;;;1.65;0.40;;;2.50;99.90;;;;;;5092656;28;20111;-78
2022/01/06 03:05:10;;;;;;;0.30;0.30;;;2.50;99.90;;;;;;5094173;28;20023;-79
2022/01/06 03:07:36;;;;;;;0.40;0.40;;;2.50;99.90;;;;;;5092736;28;20483;-80
2022/01/06 03:10:06;;;;;;;0.90;0.38;;;2.80;99.90;;;;;;5092756;28;20071;-81
2022/01/06 03:12:39;;;;;;;0.57;0.40;;;2.40;99.90;;;;;;5092949;28;20032;-78
2022/01/06 03:15:16;;;;;;;1.75;0.65;;;2.40;99.90;;;;;;5094092;28;20043;-79
2022/01/06 03:17:46;;;;;;;0.45;0.45;;;2.40;99.90;;;;;;5092788;28;20024;-82
2022/01/06 03:20:14;;;;;;;1.52;0.45;;;2.60;99.90;;;;;;5093895;28;20027;-79
2022/01/06 03:22:40;;;;;;;3.05;0.40;;;2.50;99.90;;;;;;5092639;28;20464;-81
2022/01/06 03:25:08;;;;;;;0.93;0.50;;;2.30;99.90;;;;;;5092860;28;20024;-80
2022/01/06 03:27:34;;;;;;;0.50;0.50;;;2.20;99.90;;;;;;5094801;28;20048;-84
2022/01/06 03:30:00;;;;;;;3.25;0.40;;;2.10;99.90;;;;;;5100039;28;20048;-82
2022/01/06 03:32:26;;;;;;;0.52;0.45;;;2.50;99.90;;;;;;5093022;28;20024;-77
2022/01/06 03:34:52;;;;;;;2.05;0.50;;;2.10;99.90;;;;;;5092683;28;20039;-80
2022/01/06 03:37:18;;;;;;;0.85;0.32;;;2.40;99.90;;;;;;5092642;28;20371;-81
2022/01/06 03:39:44;;;;;;;0.50;0.50;;;2.10;99.90;;;;;;5092215;28;20020;-83
2022/01/06 03:42:11;;;;;;;1.75;0.45;;;2.20;99.90;;;;;;5093412;28;20024;-81
2022/01/06 03:44:37;;;;;;;1.67;0.40;;;2.10;99.90;;;;;;5092659;28;20570;-83
2022/01/06 03:47:04;;;;;;;1.27;0.75;;;2.10;99.90;;;;;;5092165;28;20028;-82
2022/01/06 03:49:30;;;;;;;1.92;1.58;;;2.20;99.90;;;;;;5092356;28;20425;-81
2022/01/06 03:51:55;;;;;;;2.15;1.75;;;2.10;99.90;;;;;;5092726;28;20024;-83
2022/01/06 03:54:22;;;;;;;2.67;0.80;;;2.10;99.90;;;;;;5092698;28;20024;-84
2022/01/06 03:56:48;;;;;;;2.10;1.80;;;2.00;99.90;;;;;;5094402;28;20020;-83
2022/01/06 03:59:16;;;;;;;6.43;5.53;;;2.20;99.90;;;;;;5093954;28;20374;-83
2022/01/06 04:01:42;;;;;;;2.25;1.38;;;2.10;99.90;;;;;;5095545;28;20013;-83
2022/01/06 04:04:09;;;;;;;3.08;1.40;;;2.20;99.90;;;;;;5094693;28;20040;-80
2022/01/06 04:06:34;;;;;;;0.60;0.20;;;2.20;99.90;;;;;;5094788;28;20016;-82
2022/01/06 04:09:00;;;;;;;1.35;0.28;;;2.00;99.90;;;;;;5095930;28;20062;-83
2022/01/06 04:11:25;;;;;;;1.92;0.35;;;2.30;99.90;;;;;;5096294;28;20024;-83
2022/01/06 04:13:51;;;;;;;2.33;0.60;;;2.30;99.90;;;;;;5094842;28;20529;-84
2022/01/06 04:16:18;;;;;;;1.13;1.02;;;2.10;99.90;;;;;;5094898;28;20056;-83
2022/01/06 04:18:44;;;;;;;4.38;1.15;;;1.90;99.90;;;;;;5094811;28;20039;-84
2022/01/06 04:21:09;;;;;;;1.10;0.50;;;1.80;99.90;;;;;;5095035;28;20036;-82
2022/01/06 04:23:35;;;;;;;1.05;0.60;;;2.00;99.90;;;;;;5094229;28;20031;-82
2022/01/06 04:26:02;;;;;;;0.95;0.55;;;2.00;99.90;;;;;;5095503;28;20103;-81
2022/01/06 04:28:28;;;;;;;1.63;0.52;;;1.70;99.90;;;;;;5098835;28;20044;-83
2022/01/06 04:30:54;;;;;;;2.13;1.02;;;1.90;99.90;;;;;;5098533;28;20027;-84
2022/01/06 04:33:20;;;;;;;3.30;1.20;;;1.80;99.90;;;;;;5098311;28;20038;-83
2022/01/06 04:35:46;;;;;;;1.23;0.70;;;2.00;99.90;;;;;;5100014;28;20026;-86
2022/01/06 04:38:12;;;;;;;0.50;0.50;;;1.90;99.90;;;;;;5098999;28;20052;-81
2022/01/06 04:40:38;;;;;;;2.13;0.70;;;1.90;99.90;;;;;;5098852;28;20028;-81
2022/01/06 04:43:05;;;;;;;1.02;0.80;;;1.70;99.90;;;;;;5099627;28;20447;-85
2022/01/06 04:45:30;;;;;;;1.10;1.00;;;1.70;99.90;;;;;;5098732;28;20061;-82
2022/01/06 04:47:56;;;;;;;1.15;0.80;;;1.90;99.90;;;;;;5099533;28;20024;-83
2022/01/06 04:50:22;;;;;;;1.10;0.60;;;1.60;99.90;;;;;;5098305;28;20082;-85
2022/01/06 04:52:48;;;;;;;1.30;0.20;;;1.60;99.90;;;;;;5099505;28;20039;-87
2022/01/06 04:55:14;;;;;;;0.40;0.40;;;1.80;99.90;;;;;;5098001;28;20043;-83
2022/01/06 04:57:39;;;;;;;0.70;0.68;;;1.50;99.90;;;;;;5099099;28;20016;-83
2022/01/06 05:00:07;;;;;;;0.82;0.70;;;1.70;99.90;;;;;;5097725;28;20024;-82
2022/01/06 05:02:33;;;;;;;1.00;0.80;;;1.50;99.90;;;;;;5097894;28;20035;-85
2022/01/06 05:04:58;;;;;;;1.05;0.60;;;1.40;99.90;;;;;;5097866;28;20048;-84
2022/01/06 05:07:24;;;;;;;1.15;0.85;;;1.80;99.90;;;;;;5097922;28;20016;-83
2022/01/06 05:09:50;;;;;;;2.13;1.20;;;1.60;99.90;;;;;;5097416;28;20058;-82
2022/01/06 05:12:16;;;;;;;1.65;1.00;;;1.80;99.90;;;;;;5098136;28;20060;-81
2022/01/06 05:14:42;;;;;;;2.42;0.85;;;1.60;99.90;;;;;;5097949;28;20119;-80
2022/01/06 05:17:08;;;;;;;2.03;1.20;;;1.50;99.90;;;;;;5097871;28;20027;-84
2022/01/06 05:19:34;;;;;;;2.38;1.20;;;1.40;99.90;;;;;;5098567;28;20053;-84
2022/01/06 05:22:00;;;;;;;2.05;1.38;;;1.70;99.90;;;;;;5098396;28;20020;-82
2022/01/06 05:24:26;;;;;;;1.00;0.90;;;1.40;99.90;;;;;;5099919;28;20024;-83
2022/01/06 05:26:56;;;;;;;2.60;0.80;;;1.60;99.90;;;;;;5098035;28;20043;-84
2022/01/06 05:29:22;;;;;;;1.85;0.85;;;1.40;99.90;;;;;;5097746;28;20119;-82
2022/01/06 05:31:49;;;;;;;1.13;1.05;;;1.50;99.90;;;;;;5097742;28;20028;-83
2022/01/06 05:34:15;;;;;;;2.75;0.82;;;1.40;99.90;;;;;;5097210;28;20024;-85
2022/01/06 05:36:40;;;;;;;0.93;0.80;;;1.50;99.90;;;;;;5098150;28;20017;-83
2022/01/06 05:39:06;;;;;;;4.55;0.80;;;1.30;99.90;;;;;;5097124;28;20078;-84
2022/01/06 05:41:32;;;;;;;1.48;0.80;;;1.50;99.90;;;;;;5098766;28;20077;-82
2022/01/06 05:43:58;;;;;;;1.80;0.90;;;1.30;99.90;;;;;;5097398;28;20036;-82
2022/01/06 05:46:24;;;;;;;1.20;0.82;;;1.40;99.90;;;;;;5098419;28;20020;-83
2022/01/06 05:48:50;;;;;;;2.78;0.95;;;1.50;99.90;;;;;;5096929;28;20035;-83
2022/01/06 05:51:15;;;;;;;1.67;1.05;;;1.30;99.90;;;;;;5098172;28;20021;-82
2022/01/06 05:53:41;;;;;;;1.35;1.08;;;1.50;99.90;;;;;;5097112;28;20119;-83
2022/01/06 05:56:07;;;;;;;1.15;1.08;;;1.40;99.90;;;;;;5098041;28;20481;-82
2022/01/06 05:58:33;;;;;;;1.48;1.38;;;1.40;99.90;;;;;;5096601;28;20020;-84
2022/01/06 06:00:59;;;;;;;2.33;1.73;;;1.40;99.90;;;;;;5098215;28;20020;-82
2022/01/06 06:03:27;;;;;;;1.45;0.90;;;1.30;99.90;;;;;;5096785;28;20528;-85
2022/01/06 06:05:56;;;;;;;3.88;1.00;;;1.30;99.90;;;;;;5096831;28;20026;-84
2022/01/06 06:08:22;;;;;;;1.00;0.80;;;1.30;99.90;;;;;;5096792;28;20085;-82
2022/01/06 06:10:48;;;;;;;1.08;0.68;;;1.40;99.90;;;;;;5096477;28;20210;-82
2022/01/06 06:13:14;;;;;;;2.03;1.00;;;1.30;99.90;;;;;;5098395;28;20031;-83
2022/01/06 06:15:39;;;;;;;3.28;2.10;;;1.40;99.90;;;;;;5096477;28;20024;-84
2022/01/06 06:18:09;;;;;;;2.75;1.98;;;1.50;99.90;;;;;;5096015;28;20028;-83
2022/01/06 06:20:35;;;;;;;2.30;1.90;;;1.30;99.90;;;;;;5096425;28;20073;-84
2022/01/06 06:23:02;;;;;;;3.42;1.88;;;1.60;99.90;;;;;;5097232;28;20024;-85
2022/01/06 06:25:28;;;;;;;2.17;1.58;;;1.50;99.90;;;;;;5096469;28;20046;-82
2022/01/06 06:27:54;;;;;;;6.10;3.22;;;1.10;99.90;;;;;;5096081;28;20487;-83
2022/01/06 06:30:20;;;;;;;10.88;6.38;;;1.20;99.90;;;;;;5096242;28;20051;-84
2022/01/06 06:32:46;;;;;;;9.27;5.07;;;1.20;99.90;;;;;;5097237;28;20463;-83
2022/01/06 06:35:12;;;;;;;9.07;5.18;;;1.20;99.90;;;;;;5097474;28;20020;-84
2022/01/06 06:37:38;;;;;;;6.85;4.25;;;1.10;99.90;;;;;;5096353;28;20016;-85
2022/01/06 06:40:05;;;;;;;7.93;2.80;;;1.30;99.90;;;;;;5095208;28;20388;-82
2022/01/06 06:42:31;;;;;;;12.23;6.97;;;1.00;99.90;;;;;;5096844;28;20043;-81
2022/01/06 06:44:57;;;;;;;8.38;5.47;;;1.10;99.90;;;;;;5095872;28;20032;-83
2022/01/06 06:47:23;;;;;;;6.78;4.65;;;1.10;99.90;;;;;;5095317;28;20016;-84
2022/01/06 06:49:49;;;;;;;11.55;4.05;;;1.10;99.90;;;;;;5094934;28;20039;-84
2022/01/06 06:52:15;;;;;;;6.93;3.92;;;1.10;99.90;;;;;;5097067;28;20020;-83
2022/01/06 06:54:40;;;;;;;7.47;2.90;;;1.20;99.90;;;;;;5096580;28;20031;-84
2022/01/06 06:57:06;;;;;;;4.25;2.53;;;1.20;99.90;;;;;;5098562;28;20021;-82
2022/01/06 06:59:32;;;;;;;4.05;2.78;;;1.40;99.90;;;;;;5095734;28;20085;-84
2022/01/06 07:01:58;;;;;;;1.27;1.15;;;1.80;99.90;;;;;;5094160;28;20348;-78
2022/01/06 07:04:24;;;;;;;4.47;2.95;;;1.50;99.90;;;;;;5093267;28;20467;-83
2022/01/06 07:06:49;;;;;;;4.55;2.50;;;1.40;99.90;;;;;;5095773;28;20031;-82
2022/01/06 07:09:15;;;;;;;1.70;1.60;;;1.20;99.90;;;;;;5093462;28;20543;-82
2022/01/06 07:11:41;;;;;;;9.13;2.50;;;1.40;99.90;;;;;;5094430;28;20020;-80
2022/01/06 07:14:06;;;;;;;2.92;2.13;;;1.30;99.90;;;;;;5093772;28;20074;-81
2022/01/06 07:16:32;;;;;;;4.32;2.22;;;1.10;99.90;;;;;;5094095;28;20106;-84
2022/01/06 07:18:58;;;;;;;3.15;1.52;;;1.10;99.90;;;;;;5094211;28;20035;-80
2022/01/06 07:21:23;;;;;;;2.53;1.80;;;1.10;99.90;;;;;;5092864;28;20030;-81
2022/01/06 07:23:52;;;;;;;6.35;3.38;;;1.10;99.90;;;;;;5092225;28;20117;-81
2022/01/06 07:26:18;;;;;;;4.00;2.28;;;1.00;99.90;;;;;;5091898;28;20020;-81
2022/01/06 07:28:44;;;;;;;3.92;2.78;;;1.40;99.90;;;;;;5093040;28;20055;-83
2022/01/06 07:31:10;;;;;;;5.03;3.70;;;1.20;99.90;;;;;;5093531;28;20032;-81
2022/01/06 07:33:35;;;;;;;7.25;4.90;;;1.30;99.90;;;;;;5095404;28;20019;-80
2022/01/06 07:36:01;;;;;;;4.15;3.17;;;1.10;99.90;;;;;;5093415;28;20016;-81
2022/01/06 07:38:27;;;;;;;5.93;2.15;;;1.10;99.90;;;;;;5093683;28;20031;-80
2022/01/06 07:40:54;;;;;;;4.35;2.25;;;1.40;99.90;;;;;;5094014;28;20023;-82
2022/01/06 07:43:19;;;;;;;3.05;2.72;;;1.20;99.90;;;;;;5092361;28;20056;-79
2022/01/06 07:45:45;;;;;;;4.38;2.60;;;1.30;99.90;;;;;;5093463;28;20464;-80
2022/01/06 07:48:19;;;;;;;5.25;4.18;;;1.30;99.90;;;;;;5093124;28;20035;-81
2022/01/06 07:50:47;;;;;;;10.73;3.42;;;1.40;99.90;;;;;;5093132;28;20028;-81
2022/01/06 07:53:13;;;;;;;5.97;4.32;;;1.40;99.90;;;;;;5093145;28;20053;-82
2022/01/06 07:55:38;;;;;;;6.30;3.53;;;1.30;99.90;;;;;;5093974;28;20368;-85
2022/01/06 07:58:05;;;;;;;4.88;3.97;;;1.40;99.90;;;;;;5094030;28;20024;-82
2022/01/06 08:00:30;;;;;;;3.42;2.60;;;1.40;99.90;;;;;;5094353;28;20475;-81
2022/01/06 08:02:56;;;;;;;7.72;3.15;;;1.40;99.90;;;;;;5097136;28;20024;-81
2022/01/06 08:05:25;;;;;;;8.77;4.03;;;1.50;99.90;;;;;;5098462;28;20020;-81
2022/01/06 08:07:51;;;;;;;5.88;3.60;;;1.50;99.90;;;;;;5097462;28;20755;-79
2022/01/06 08:10:17;;;;;;;3.90;2.80;;;1.60;99.90;;;;;;5097921;28;20118;-80
2022/01/06 08:12:43;;;;;;;6.40;3.65;;;1.70;99.90;;;;;;5096875;28;20024;-81
2022/01/06 08:15:09;;;;;;;8.77;4.88;;;1.80;99.90;;;;;;5097225;28;20036;-83
2022/01/06 08:17:36;;;;;;;9.48;5.35;;;1.70;99.90;;;;;;5098348;28;20028;-80
2022/01/06 08:20:04;;;;;;;15.75;6.88;;;1.80;99.90;;;;;;5097222;28;20042;-81
2022/01/06 08:22:30;;;;;;;12.23;5.90;;;1.80;99.90;;;;;;5098090;28;20459;-78
2022/01/06 08:24:55;;;;;;;8.57;4.68;;;2.30;99.90;;;;;;5098942;28;20087;-79
2022/01/06 08:27:23;;;;;;;6.70;3.38;;;2.00;99.90;;;;;;5096822;28;20094;-80
2022/01/06 08:29:50;;;;;;;8.63;5.00;;;2.20;99.90;;;;;;5096887;28;20472;-82
2022/01/06 08:32:16;;;;;;;17.17;9.15;;;2.20;99.90;;;;;;5097070;28;20020;-79
2022/01/06 08:34:41;;;;;;;41.55;18.15;;;2.20;99.90;;;;;;5097059;28;20034;-79
2022/01/06 08:37:07;;;;;;;47.03;19.10;;;2.40;99.90;;;;;;5096966;28;20483;-81
2022/01/06 08:39:33;;;;;;;87.68;39.92;;;2.50;99.90;;;;;;5096986;28;20027;-78
2022/01/06 08:41:59;;;;;;;40.35;19.65;;;2.40;99.90;;;;;;5096528;28;20438;-82
2022/01/06 08:44:24;;;;;;;21.08;10.60;;;2.50;99.90;;;;;;5096932;28;20111;-82
2022/01/06 08:46:50;;;;;;;20.75;10.77;;;2.50;99.90;;;;;;5098340;28;20031;-79
2022/01/06 08:49:16;;;;;;;19.80;8.25;;;2.80;99.90;;;;;;5096265;28;20071;-79
2022/01/06 08:51:43;;;;;;;13.57;8.35;;;2.90;99.90;;;;;;5096847;28;20027;-80
2022/01/06 08:54:09;;;;;;;17.83;9.23;;;2.90;99.90;;;;;;5097966;28;20024;-83
2022/01/06 08:56:35;;;;;;;13.93;8.00;;;3.10;99.90;;;;;;5096349;28;20020;-81
2022/01/06 08:59:02;;;;;;;14.30;9.07;;;3.20;99.90;;;;;;5096898;28;20447;-84
2022/01/06 09:01:28;;;;;;;16.63;7.53;;;3.20;99.90;;;;;;5097292;28;20069;-81
2022/01/06 09:03:54;;;;;;;13.70;7.50;;;3.50;99.90;;;;;;5096550;28;20028;-82
2022/01/06 09:06:20;;;;;;;19.33;9.60;;;3.20;99.90;;;;;;5096495;28;20081;-83
2022/01/06 09:08:46;;;;;;;14.93;9.38;;;3.30;99.90;;;;;;5096849;28;20031;-82
2022/01/06 09:11:13;;;;;;;13.15;6.97;;;3.40;99.90;;;;;;5097429;28;20103;-79
2022/01/06 09:13:38;;;;;;;10.55;6.07;;;3.60;99.90;;;;;;5095753;28;20027;-79
2022/01/06 09:16:08;;;;;;;12.30;5.75;;;3.70;99.90;;;;;;5095814;28;20039;-81
2022/01/06 09:18:34;;;;;;;6.45;4.65;;;3.70;99.90;;;;;;5096004;28;20029;-82
2022/01/06 09:21:00;;;;;;;9.05;3.55;;;3.80;99.90;;;;;;5096151;28;20372;-80
2022/01/06 09:23:26;;;;;;;10.20;5.22;;;3.80;99.90;;;;;;5096080;28;20053;-82
2022/01/06 09:25:51;;;;;;;8.35;4.25;;;3.90;99.90;;;;;;5094519;28;20020;-80
2022/01/06 09:28:17;;;;;;;11.77;4.90;;;4.00;99.90;;;;;;5095408;28;20154;-81
2022/01/06 09:30:43;;;;;;;10.43;4.85;;;4.10;99.90;;;;;;5095511;28;20048;-84
2022/01/06 09:33:08;;;;;;;16.10;9.63;;;4.20;99.90;;;;;;5096894;28;20021;-84
2022/01/06 09:35:34;;;;;;;12.82;7.75;;;4.20;99.90;;;;;;5096676;28;20036;-82
2022/01/06 09:38:00;;;;;;;29.20;15.98;;;4.40;99.90;;;;;;5095070;28;20035;-81
2022/01/06 09:40:26;;;;;;;56.50;27.38;;;4.40;99.90;;;;;;5097868;28;20064;-82
2022/01/06 09:42:54;;;;;;;41.05;22.17;;;4.80;99.90;;;;;;5099554;28;20058;-81
2022/01/06 09:45:23;;;;;;;30.08;16.05;;;4.90;99.90;;;;;;5098664;28;20031;-80
2022/01/06 09:47:49;;;;;;;38.45;18.90;;;4.80;99.90;;;;;;5099066;28;20024;-82
2022/01/06 09:50:15;;;;;;;15.02;8.20;;;4.80;99.90;;;;;;5098238;28;20119;-81
2022/01/06 09:52:41;;;;;;;9.38;4.28;;;4.70;99.90;;;;;;5098057;28;20051;-81
2022/01/06 09:55:08;;;;;;;26.10;13.23;;;4.70;99.90;;;;;;5096419;28;20036;-79
2022/01/06 09:57:34;;;;;;;53.78;24.92;;;4.70;99.90;;;;;;5096351;28;20039;-79
2022/01/06 10:00:01;;;;;;;49.08;24.58;;;4.70;99.90;;;;;;5095038;28;20016;-80
2022/01/06 10:02:38;;;;;;;67.97;30.40;;;4.70;99.90;;;;;;5095228;28;20035;-81
2022/01/06 10:05:05;;;;;;;22.63;9.88;;;4.70;99.90;;;;;;5095018;28;20024;-80
2022/01/06 10:07:40;;;;;;;9.25;4.03;;;4.70;99.90;;;;;;5094429;28;20044;-78
2022/01/06 10:10:08;;;;;;;26.10;12.23;;;4.70;99.90;;;;;;5094761;28;20042;-82
2022/01/06 10:12:35;;;;;;;35.03;16.88;;;4.80;99.90;;;;;;5093968;28;20478;-79
2022/01/06 10:15:01;;;;;;;59.25;28.17;;;4.90;99.90;;;;;;5094347;28;20025;-80
2022/01/06 10:17:33;;;;;;;36.13;17.17;;;4.90;99.90;;;;;;5095589;28;20027;-79
2022/01/06 10:20:14;;;;;;;76.32;33.15;;;5.00;99.90;;;;;;5093680;28;20035;-80
2022/01/06 10:22:49;;;;;;;32.80;15.80;;;5.10;99.90;;;;;;5093796;28;20043;-78
2022/01/06 10:25:17;;;;;;;42.03;15.97;;;5.10;99.90;;;;;;5094727;28;20095;-79
2022/01/06 10:27:44;;;;;;;36.88;13.70;;;5.50;99.90;;;;;;5093170;28;20269;-81
2022/01/06 10:30:11;;;;;;;28.48;11.98;;;5.50;99.90;;;;;;5093796;28;20476;-80
2022/01/06 10:32:38;;;;;;;31.63;13.13;;;5.60;99.90;;;;;;5094048;28;20456;-81
2022/01/06 10:35:05;;;;;;;37.67;18.67;;;5.60;99.90;;;;;;5094053;28;20360;-83
2022/01/06 10:37:40;;;;;;;8.50;4.70;;;5.70;99.90;;;;;;5093322;28;20016;-81
2022/01/06 10:40:22;;;;;;;20.70;12.17;;;5.80;99.40;;;;;;5093207;28;20106;-78
2022/01/06 10:42:50;;;;;;;4.82;3.05;;;5.90;98.30;;;;;;5093460;28;20467;-79
2022/01/06 10:45:22;;;;;;;3.03;1.20;;;5.90;97.10;;;;;;5094777;28;20024;-80
2022/01/06 10:47:50;;;;;;;19.05;14.73;;;5.90;95.70;;;;;;5093697;28;20046;-79
2022/01/06 10:50:25;;;;;;;6.57;5.88;;;5.90;96.30;;;;;;5093548;28;20379;-80
2022/01/06 10:52:52;;;;;;;5.13;2.38;;;6.00;96.00;;;;;;5094667;28;20024;-82
2022/01/06 10:55:19;;;;;;;3.70;2.10;;;5.90;95.40;;;;;;5100842;28;20084;-82
2022/01/06 10:58:01;;;;;;;1.80;1.70;;;6.00;95.70;;;;;;5097935;28;20028;-80
2022/01/06 11:00:42;;;;;;;4.90;4.50;;;6.00;95.00;;;;;;5094516;28;20028;-81
2022/01/06 11:03:11;;;;;;;2.25;1.25;;;6.10;94.40;;;;;;5092569;28;20421;-79
2022/01/06 11:05:39;;;;;;;1.65;0.70;;;6.30;95.30;;;;;;5092999;28;20056;-81
2022/01/06 11:08:07;;;;;;;2.72;1.70;;;6.50;94.10;;;;;;5094114;28;20480;-79
2022/01/06 11:10:40;;;;;;;1.25;0.90;;;6.60;92.50;;;;;;5093947;28;20361;-81
2022/01/06 11:13:06;;;;;;;0.82;0.80;;;6.70;92.10;;;;;;5093916;28;20032;-83
2022/01/06 11:15:32;;;;;;;0.75;0.40;;;6.70;92.00;;;;;;5092615;28;20024;-82
2022/01/06 11:18:00;;;;;;;0.30;0.30;;;6.80;90.40;;;;;;5093439;28;20166;-80
2022/01/06 11:20:27;;;;;;;2.55;0.80;;;6.80;90.30;;;;;;5092720;28;20059;-81
2022/01/06 11:22:55;;;;;;;1.23;0.63;;;6.80;90.80;;;;;;5091960;28;20024;-81
2022/01/06 11:25:37;;;;;;;1.23;0.60;;;6.80;90.50;;;;;;5092605;28;20031;-80
2022/01/06 11:28:09;;;;;;;1.45;0.70;;;6.80;89.40;;;;;;5092243;28;20044;-81
2022/01/06 11:30:47;;;;;;;0.80;0.65;;;6.80;90.00;;;;;;5091895;28;20036;-79
2022/01/06 11:33:14;;;;;;;0.38;0.20;;;6.90;89.60;;;;;;5091569;28;20471;-81
2022/01/06 11:36:16;;;;;;;0.70;0.50;;;6.80;87.30;;;;;;5091359;28;20137;-78
2022/01/06 11:38:47;;;;;;;1.50;0.63;;;6.90;89.00;;;;;;5091589;28;20027;-82
2022/01/06 11:41:13;;;;;;;3.63;0.50;;;6.90;88.40;;;;;;5093328;28;20027;-80
2022/01/06 11:43:40;;;;;;;0.32;0.30;;;7.00;87.10;;;;;;5093182;28;20099;-82
2022/01/06 11:46:07;;;;;;;1.15;0.75;;;7.00;87.40;;;;;;5092198;28;20107;-80
2022/01/06 11:48:43;;;;;;;0.70;0.63;;;7.00;88.80;;;;;;5091757;28;20039;-82
2022/01/06 11:51:09;;;;;;;0.45;0.45;;;7.10;88.90;;;;;;5093301;28;20017;-78
2022/01/06 11:53:34;;;;;;;1.70;0.85;;;7.10;86.70;;;;;;5093123;28;20024;-81
2022/01/06 11:56:13;;;;;;;0.13;0.13;;;7.10;84.60;;;;;;5091929;28;20384;-78
2022/01/06 11:58:38;;;;;;;1.35;0.20;;;7.10;81.60;;;;;;5092206;28;20078;-81
2022/01/06 12:01:07;;;;;;;2.05;0.35;;;7.10;81.50;;;;;;5093218;28;20024;-81
2022/01/06 12:03:44;;;;;;;0.50;0.32;;;7.10;77.00;;;;;;5092098;28;20016;-82
2022/01/06 12:06:23;;;;;;;0.90;0.75;;;7.10;74.50;;;;;;5092110;28;20031;-82
2022/01/06 12:08:49;;;;;;;1.20;0.40;;;7.10;76.20;;;;;;5091863;28;20097;-81
2022/01/06 12:11:33;;;;;;;1.60;0.30;;;7.20;77.60;;;;;;5092414;28;20421;-83
2022/01/06 12:14:00;;;;;;;0.47;0.47;;;7.20;76.40;;;;;;5091714;28;20073;-80
2022/01/06 12:16:37;;;;;;;0.20;0.10;;;7.30;75.70;;;;;;5091706;28;20494;-79
2022/01/06 12:19:13;;;;;;;0.77;0.40;;;7.30;83.30;;;;;;5092877;28;20020;-80
2022/01/06 12:21:39;;;;;;;0.43;0.40;;;7.30;84.20;;;;;;5092847;28;20153;-82
2022/01/06 12:24:08;;;;;;;0.43;0.15;;;7.20;85.60;;;;;;5091000;28;20111;-79
2022/01/06 12:26:34;;;;;;;0.70;0.70;;;7.20;83.70;;;;;;5092271;28;20031;-82
2022/01/06 12:29:01;;;;;;;0.77;0.40;;;7.20;82.30;;;;;;5092400;28;20043;-79
2022/01/06 12:31:29;;;;;;;0.50;0.50;;;7.30;80.80;;;;;;5091389;28;20429;-79
2022/01/06 12:34:00;;;;;;;2.60;0.20;;;7.30;78.30;;;;;;5092427;28;20012;-81
2022/01/06 12:36:31;;;;;;;0.60;0.25;;;7.20;75.00;;;;;;5091521;28;20039;-79
2022/01/06 12:38:57;;;;;;;0.20;0.20;;;7.10;74.90;;;;;;5090685;28;20089;-78
2022/01/06 12:41:34;;;;;;;1.73;0.40;;;7.10;75.10;;;;;;5091088;28;20055;-78
2022/01/06 12:44:00;;;;;;;0.08;0.08;;;6.90;74.80;;;;;;5091424;28;20043;-79
2022/01/06 12:46:32;;;;;;;1.30;0.20;;;6.90;74.00;;;;;;5091149;28;20028;-80
2022/01/06 12:48:57;;;;;;;0.30;0.20;;;6.90;72.60;;;;;;5094927;28;20036;-80
2022/01/06 12:51:28;;;;;;;0.32;0.30;;;6.90;73.30;;;;;;5094472;28;20107;-81
2022/01/06 12:54:02;;;;;;;0.20;0.10;;;6.80;72.80;;;;;;5098150;28;20035;-79
2022/01/06 12:56:36;;;;;;;0.30;0.17;;;6.70;73.00;;;;;;5099380;28;20029;-79
2022/01/06 12:59:13;;;;;;;1.55;0.40;;;6.70;70.50;;;;;;5095577;28;20028;-78
2022/01/06 13:01:40;;;;;;;0.13;0.13;;;6.80;68.10;;;;;;5095823;28;20488;-82
2022/01/06 13:04:08;;;;;;;4.93;0.38;;;6.80;69.60;;;;;;5096150;28;20418;-81
2022/01/06 13:06:37;;;;;;;1.30;0.38;;;7.00;77.60;;;;;;5094641;28;20028;-81
2022/01/06 13:09:21;;;;;;;1.40;0.50;;;7.00;71.40;;;;;;5094611;28;20454;-81